createdAt,value
2022-08-23T00:00:47.790Z,20.59
2022-08-23T00:03:22.128Z,20.56
2022-08-23T00:05:54.776Z,20.44
2022-08-23T00:08:26.954Z,20.56
2022-08-23T00:10:59.173Z,20.55
2022-08-23T00:13:47.854Z,20.57
2022-08-23T00:16:20.661Z,20.59
2022-08-23T00:18:53.038Z,20.60
2022-08-23T00:21:25.591Z,20.61
2022-08-23T00:23:58.142Z,20.60
2022-08-23T00:26:49.669Z,20.60
2022-08-23T00:29:22.853Z,20.50
2022-08-23T00:31:57.480Z,20.57
2022-08-23T00:34:30.756Z,20.59
2022-08-23T00:37:03.737Z,20.60
2022-08-23T00:39:36.447Z,20.56
2022-08-23T00:42:26.717Z,20.56
2022-08-23T00:45:19.028Z,20.53
2022-08-23T00:47:51.835Z,20.52
2022-08-23T00:50:31.271Z,20.50
2022-08-23T00:53:12.151Z,20.48
2022-08-23T00:55:49.922Z,20.50
2022-08-23T00:58:23.388Z,20.51
2022-08-23T01:00:57.136Z,20.51
2022-08-23T01:03:38.778Z,20.54
2022-08-23T01:06:16.234Z,20.54
2022-08-23T01:08:55.543Z,20.49
2022-08-23T01:11:32.970Z,20.49
2022-08-23T01:14:12.116Z,20.50
2022-08-23T01:16:48.520Z,20.52
2022-08-23T01:19:31.786Z,20.52
2022-08-23T01:22:11.279Z,20.52
2022-08-23T01:25:06.247Z,20.54
2022-08-23T01:27:38.587Z,20.52
2022-08-23T01:30:15.157Z,20.50
2022-08-23T01:32:50.337Z,20.51
2022-08-23T01:38:04.322Z,20.52
2022-08-23T01:40:37.341Z,20.51
2022-08-23T01:43:10.694Z,20.44
2022-08-23T01:45:44.311Z,20.49
2022-08-23T01:48:17.807Z,20.50
2022-08-23T01:50:50.451Z,20.48
2022-08-23T01:53:22.746Z,20.44
2022-08-23T01:55:55.415Z,20.41
2022-08-23T01:58:28.135Z,20.43
2022-08-23T02:01:04.753Z,20.47
2022-08-23T02:03:38.992Z,20.44
2022-08-23T02:06:11.308Z,20.43
2022-08-23T02:09:04.788Z,20.43
2022-08-23T02:11:45.641Z,20.29
2022-08-23T02:14:20.656Z,20.41
2022-08-23T02:17:03.457Z,20.43
2022-08-23T02:19:39.612Z,20.41
2022-08-23T02:22:12.841Z,20.44
2022-08-23T02:24:47.699Z,20.43
2022-08-23T02:27:21.263Z,20.31
2022-08-23T02:29:53.891Z,20.32
2022-08-23T02:32:27.292Z,20.35
2022-08-23T02:35:05.025Z,20.37
2022-08-23T02:37:38.472Z,20.38
2022-08-23T02:40:13.080Z,20.32
2022-08-23T02:42:46.083Z,20.30
2022-08-23T02:45:19.029Z,20.25
2022-08-23T02:47:52.792Z,20.29
2022-08-23T02:50:30.769Z,20.30
2022-08-23T02:53:03.643Z,20.25
2022-08-23T02:55:37.051Z,20.19
2022-08-23T02:58:09.342Z,20.25
2022-08-23T03:00:42.754Z,20.26
2022-08-23T03:03:16.197Z,20.24
2022-08-23T03:05:49.841Z,20.23
2022-08-23T03:08:24.493Z,20.19
2022-08-23T03:10:57.042Z,20.20
2022-08-23T03:13:29.650Z,20.20
2022-08-23T03:16:02.865Z,20.19
2022-08-23T03:18:35.875Z,20.20
2022-08-23T03:21:12.211Z,20.17
2022-08-23T03:23:45.348Z,20.21
2022-08-23T03:26:18.890Z,20.20
2022-08-23T03:28:51.064Z,20.15
2022-08-23T03:31:23.436Z,20.23
2022-08-23T03:34:05.522Z,20.18
2022-08-23T03:36:38.651Z,20.23
2022-08-23T03:39:10.971Z,20.24
2022-08-23T03:41:43.483Z,20.17
2022-08-23T03:44:16.603Z,20.03
2022-08-23T03:46:50.657Z,20.09
2022-08-23T03:49:22.750Z,20.17
2022-08-23T03:51:58.534Z,20.19
2022-08-23T03:54:31.220Z,20.18
2022-08-23T03:57:05.220Z,20.17
2022-08-23T03:59:40.630Z,20.14
2022-08-23T04:02:16.294Z,20.15
2022-08-23T04:04:48.922Z,20.15
2022-08-23T04:07:37.873Z,20.11
2022-08-23T04:10:15.662Z,20.13
2022-08-23T04:12:48.325Z,20.09
2022-08-23T04:15:21.450Z,20.15
2022-08-23T04:17:53.800Z,20.12
2022-08-23T04:20:27.213Z,20.12
2022-08-23T04:23:04.935Z,20.13
2022-08-23T04:25:45.909Z,20.09
2022-08-23T04:28:20.151Z,20.10
2022-08-23T04:30:52.904Z,20.17
2022-08-23T04:33:25.126Z,20.16
2022-08-23T04:35:57.530Z,20.16
2022-08-23T04:38:30.669Z,20.16
2022-08-23T04:41:24.526Z,20.20
2022-08-23T04:43:57.635Z,20.20
2022-08-23T04:46:30.442Z,20.22
2022-08-23T04:49:04.122Z,20.23
2022-08-23T04:51:36.373Z,20.28
2022-08-23T04:54:09.798Z,20.31
2022-08-23T04:56:56.591Z,20.26
2022-08-23T04:59:29.174Z,20.33
2022-08-23T05:02:01.311Z,20.35
2022-08-23T05:04:33.888Z,20.34
2022-08-23T05:07:06.427Z,20.36
2022-08-23T05:09:39.054Z,20.43
2022-08-23T05:12:13.382Z,20.43
2022-08-23T05:14:47.907Z,20.42
2022-08-23T05:17:21.228Z,20.42
2022-08-23T05:19:54.022Z,20.47
2022-08-23T05:22:26.312Z,20.51
2022-08-23T05:25:20.326Z,20.53
2022-08-23T05:27:52.417Z,20.54
2022-08-23T05:30:24.687Z,20.48
2022-08-23T05:32:57.389Z,20.59
2022-08-23T05:35:31.800Z,20.64
2022-08-23T05:38:04.685Z,20.67
2022-08-23T05:40:37.394Z,20.66
2022-08-23T05:43:15.154Z,20.66
2022-08-23T05:45:48.423Z,20.68
2022-08-23T05:48:21.676Z,20.63
2022-08-23T05:50:58.428Z,20.72
2022-08-23T05:53:31.167Z,20.73
2022-08-23T05:56:16.510Z,20.71
2022-08-23T05:58:49.685Z,20.77
2022-08-23T06:01:23.577Z,20.82
2022-08-23T06:03:59.850Z,20.81
2022-08-23T06:06:36.928Z,20.83
2022-08-23T06:09:13.377Z,20.79
2022-08-23T06:11:49.049Z,20.83
2022-08-23T06:14:23.786Z,20.88
2022-08-23T06:16:56.628Z,20.91
2022-08-23T06:19:36.098Z,20.90
2022-08-23T06:22:44.235Z,20.79
2022-08-23T06:25:16.813Z,20.88
2022-08-23T06:27:59.659Z,20.94
2022-08-23T06:30:32.517Z,20.98
2022-08-23T06:33:05.617Z,20.97
2022-08-23T06:35:40.276Z,20.94
2022-08-23T06:38:15.508Z,20.99
2022-08-23T06:41:02.480Z,21.04
2022-08-23T06:43:54.768Z,21.00
2022-08-23T06:46:38.603Z,21.03
2022-08-23T06:49:11.516Z,20.95
2022-08-23T06:51:46.940Z,21.00
2022-08-23T06:54:26.701Z,20.91
2022-08-23T06:57:25.693Z,21.04
2022-08-23T07:00:24.162Z,21.06
2022-08-23T07:03:18.038Z,21.12
2022-08-23T07:06:09.560Z,21.18
2022-08-23T07:08:42.774Z,21.10
2022-08-23T07:11:15.145Z,21.22
2022-08-23T07:13:48.233Z,21.25
2022-08-23T07:16:21.095Z,21.28
2022-08-23T07:18:55.641Z,21.25
2022-08-23T07:21:28.097Z,21.28
2022-08-23T07:24:01.244Z,21.29
2022-08-23T07:26:34.256Z,21.18
2022-08-23T07:29:07.890Z,21.23
2022-08-23T07:31:45.913Z,21.23
2022-08-23T07:34:19.669Z,21.24
2022-08-23T07:36:53.306Z,21.27
2022-08-23T07:39:27.328Z,21.32
2022-08-23T07:42:01.640Z,21.18
2022-08-23T07:44:54.838Z,21.29
2022-08-23T07:47:30.587Z,21.32
2022-08-23T07:50:04.574Z,21.33
2022-08-23T07:52:38.420Z,21.37
2022-08-23T07:55:12.063Z,21.41
2022-08-23T07:58:07.258Z,21.40
2022-08-23T08:00:47.756Z,21.43
2022-08-23T08:03:49.085Z,21.35
2022-08-23T08:06:31.300Z,21.46
2022-08-23T08:09:04.500Z,21.46
2022-08-23T08:11:37.857Z,21.45
2022-08-23T08:14:12.221Z,21.45
2022-08-23T08:16:52.514Z,21.45
2022-08-23T08:19:42.527Z,21.48
2022-08-23T08:22:33.969Z,21.53
2022-08-23T08:25:34.496Z,21.58
2022-08-23T08:28:15.195Z,21.60
2022-08-23T08:30:48.780Z,21.60
2022-08-23T08:33:21.167Z,21.67
2022-08-23T08:35:59.342Z,21.66
2022-08-23T08:38:32.732Z,21.72
2022-08-23T08:41:20.639Z,21.72
2022-08-23T08:44:03.832Z,21.79
2022-08-23T08:46:45.258Z,21.83
2022-08-23T08:49:35.043Z,21.85
2022-08-23T08:52:16.438Z,21.91
2022-08-23T08:54:53.187Z,21.94
2022-08-23T08:57:27.699Z,21.93
2022-08-23T09:00:04.328Z,21.99
2022-08-23T09:02:38.586Z,22.04
2022-08-23T09:05:18.116Z,22.07
2022-08-23T09:08:02.824Z,22.12
2022-08-23T09:10:51.598Z,22.06
2022-08-23T09:13:53.958Z,22.07
2022-08-23T09:16:36.618Z,22.06
2022-08-23T09:19:09.977Z,22.13
2022-08-23T09:21:47.632Z,22.13
2022-08-23T09:24:19.893Z,22.06
2022-08-23T09:27:04.379Z,22.02
2022-08-23T09:29:39.748Z,22.09
2022-08-23T09:32:29.752Z,22.13
2022-08-23T09:35:16.076Z,22.16
2022-08-23T09:37:57.619Z,22.03
2022-08-23T09:40:41.066Z,22.05
2022-08-23T09:43:19.406Z,22.03
2022-08-23T09:46:02.225Z,22.03
2022-08-23T09:48:41.431Z,22.03
2022-08-23T09:51:24.013Z,22.01
2022-08-23T09:54:09.902Z,22.01
2022-08-23T09:56:45.404Z,22.04
2022-08-23T09:59:33.715Z,22.05
2022-08-23T10:02:27.239Z,22.06
2022-08-23T10:05:04.123Z,22.08
2022-08-23T10:07:42.338Z,22.06
2022-08-23T10:10:23.683Z,21.90
2022-08-23T10:12:59.198Z,22.02
2022-08-23T10:15:49.605Z,22.06
2022-08-23T10:18:34.860Z,22.01
2022-08-23T10:21:09.299Z,22.06
2022-08-23T10:23:49.889Z,22.09
2022-08-23T10:26:28.291Z,22.01
2022-08-23T10:29:27.348Z,22.03
2022-08-23T10:32:08.821Z,21.84
2022-08-23T10:35:04.115Z,22.03
2022-08-23T10:37:52.190Z,22.06
2022-08-23T10:40:29.556Z,22.05
2022-08-23T10:43:15.746Z,22.08
2022-08-23T10:45:50.138Z,22.09
2022-08-23T10:48:33.274Z,22.12
2022-08-23T10:51:11.000Z,22.17
2022-08-23T10:53:47.373Z,22.16
2022-08-23T10:56:21.101Z,22.09
2022-08-23T10:59:02.413Z,22.08
2022-08-23T11:01:44.672Z,22.11
2022-08-23T11:04:28.266Z,22.13
2022-08-23T11:07:23.793Z,22.10
2022-08-23T11:10:16.772Z,22.09
2022-08-23T11:12:59.524Z,22.06
2022-08-23T11:15:44.529Z,22.15
2022-08-23T11:18:45.362Z,22.13
2022-08-23T11:21:51.244Z,22.19
2022-08-23T11:24:50.331Z,22.19
2022-08-23T11:27:38.321Z,22.19
2022-08-23T11:30:50.900Z,22.19
2022-08-23T11:33:36.744Z,22.21
2022-08-23T11:36:22.072Z,22.13
2022-08-23T11:39:09.298Z,22.25
2022-08-23T11:42:07.312Z,22.26
2022-08-23T11:44:48.273Z,22.27
2022-08-23T11:47:39.778Z,22.32
2022-08-23T11:50:30.700Z,22.34
2022-08-23T11:53:34.520Z,22.36
2022-08-23T11:56:24.409Z,22.40
2022-08-23T11:59:09.228Z,22.45
2022-08-23T12:01:45.618Z,22.45
2022-08-23T12:04:37.524Z,22.48
2022-08-23T12:07:13.335Z,22.54
2022-08-23T12:10:03.437Z,22.51
2022-08-23T12:12:41.860Z,22.63
2022-08-23T12:15:19.815Z,22.66
2022-08-23T12:18:12.630Z,22.74
2022-08-23T12:20:48.214Z,22.81
2022-08-23T12:23:23.240Z,22.88
2022-08-23T12:26:11.221Z,22.98
2022-08-23T12:28:50.689Z,23.03
2022-08-23T12:31:33.500Z,23.03
2022-08-23T12:34:19.811Z,23.12
2022-08-23T12:37:05.451Z,23.17
2022-08-23T12:39:49.690Z,23.18
2022-08-23T12:42:29.298Z,23.17
2022-08-23T12:45:13.621Z,23.21
2022-08-23T12:47:58.202Z,23.21
2022-08-23T12:50:32.576Z,23.21
2022-08-23T12:53:09.222Z,23.21
2022-08-23T12:55:45.956Z,23.23
2022-08-23T12:58:31.501Z,23.15
2022-08-23T13:01:08.971Z,23.28
2022-08-23T13:03:45.338Z,23.32
2022-08-23T13:06:22.968Z,23.34
2022-08-23T13:09:01.212Z,23.36
2022-08-23T13:11:36.092Z,23.41
2022-08-23T13:14:25.737Z,23.44
2022-08-23T13:17:00.091Z,23.50
2022-08-23T13:19:33.723Z,23.54
2022-08-23T13:22:14.954Z,23.53
2022-08-23T13:25:24.703Z,23.55
2022-08-23T13:27:56.161Z,23.61
2022-08-23T13:30:31.539Z,23.64
2022-08-23T13:33:24.331Z,23.67
2022-08-23T13:36:13.953Z,23.66
2022-08-23T13:38:47.448Z,23.67
2022-08-23T13:41:38.613Z,23.74
2022-08-23T13:44:16.965Z,23.75
2022-08-23T13:46:51.812Z,23.81
2022-08-23T13:49:28.666Z,23.84
2022-08-23T13:55:03.272Z,23.86
2022-08-23T13:57:37.281Z,23.78
2022-08-23T14:00:13.521Z,23.93
2022-08-23T14:02:49.180Z,23.96
2022-08-23T14:05:24.648Z,23.97
2022-08-23T14:07:57.090Z,23.98
2022-08-23T14:10:29.981Z,24.08
2022-08-23T14:13:02.922Z,24.09
2022-08-23T14:18:28.327Z,23.97
2022-08-23T14:21:02.025Z,24.16
2022-08-23T14:23:34.522Z,24.16
2022-08-23T14:26:07.592Z,24.16
2022-08-23T14:28:44.296Z,24.12
2022-08-23T14:31:17.227Z,24.14
2022-08-23T14:33:50.347Z,24.20
2022-08-23T14:36:23.629Z,24.24
2022-08-23T14:39:00.438Z,24.20
2022-08-23T14:41:33.497Z,24.33
2022-08-23T14:44:06.512Z,24.34
2022-08-23T14:46:39.153Z,24.34
2022-08-23T14:49:11.777Z,24.36
2022-08-23T14:51:47.511Z,24.36
2022-08-23T14:54:24.033Z,24.36
2022-08-23T14:56:57.132Z,24.41
2022-08-23T14:59:29.718Z,24.39
2022-08-23T15:02:02.661Z,24.43
2022-08-23T15:04:37.339Z,24.45
2022-08-23T15:07:18.543Z,24.31
2022-08-23T15:09:55.751Z,24.39
2022-08-23T15:15:22.590Z,24.43
2022-08-23T15:17:58.831Z,24.45
2022-08-23T15:20:34.050Z,24.48
2022-08-23T15:23:08.513Z,24.48
2022-08-23T15:25:45.037Z,24.52
2022-08-23T15:28:19.198Z,24.54
2022-08-23T15:30:52.573Z,24.53
2022-08-23T15:33:27.027Z,24.53
2022-08-23T15:36:06.778Z,24.43
2022-08-23T15:38:40.612Z,24.47
2022-08-23T15:41:13.458Z,24.42
2022-08-23T15:43:46.513Z,24.46
2022-08-23T15:46:22.841Z,24.47
2022-08-23T15:49:03.296Z,24.51
2022-08-23T15:51:37.040Z,24.44
2022-08-23T15:54:10.313Z,24.55
2022-08-23T15:56:46.006Z,24.54
2022-08-23T15:59:21.737Z,24.52
2022-08-23T16:01:54.092Z,24.55
2022-08-23T16:04:26.538Z,24.47
2022-08-23T16:07:09.729Z,24.52
2022-08-23T16:09:42.639Z,24.45
2022-08-23T16:12:15.294Z,24.54
2022-08-23T16:14:48.624Z,24.50
2022-08-23T16:17:21.952Z,24.43
2022-08-23T16:19:57.701Z,24.43
2022-08-23T16:22:31.261Z,24.44
2022-08-23T16:25:05.096Z,24.42
2022-08-23T16:27:37.844Z,24.43
2022-08-23T16:30:12.607Z,24.42
2022-08-23T16:32:45.718Z,24.40
2022-08-23T16:35:18.679Z,24.38
2022-08-23T16:37:51.650Z,24.37
2022-08-23T16:40:24.290Z,24.35
2022-08-23T16:42:56.780Z,24.32
2022-08-23T16:45:29.223Z,24.27
2022-08-23T16:48:02.382Z,24.26
2022-08-23T16:50:35.148Z,24.17
2022-08-23T16:53:09.740Z,24.24
2022-08-23T16:55:41.110Z,24.21
2022-08-23T16:58:13.332Z,24.18
2022-08-23T17:00:45.551Z,24.16
2022-08-23T17:03:19.060Z,24.11
2022-08-23T17:05:51.270Z,24.11
2022-08-23T17:08:23.519Z,24.07
2022-08-23T17:10:58.915Z,24.00
2022-08-23T17:13:35.585Z,24.04
2022-08-23T17:16:10.857Z,24.01
2022-08-23T17:18:43.399Z,24.00
2022-08-23T17:21:16.213Z,23.98
2022-08-23T17:23:48.807Z,23.96
2022-08-23T17:26:21.392Z,23.96
2022-08-23T17:28:56.643Z,23.94
2022-08-23T17:31:29.235Z,23.92
2022-08-23T17:34:03.914Z,23.93
2022-08-23T17:36:37.710Z,23.84
2022-08-23T17:39:12.785Z,23.92
2022-08-23T17:41:45.800Z,23.86
2022-08-23T17:44:18.712Z,23.83
2022-08-23T17:46:52.303Z,23.81
2022-08-23T17:49:25.351Z,23.79
2022-08-23T17:51:57.907Z,23.76
2022-08-23T17:54:30.542Z,23.76
2022-08-23T17:57:04.869Z,23.75
2022-08-23T17:59:36.359Z,23.72
2022-08-23T18:02:09.554Z,23.69
2022-08-23T18:04:42.316Z,23.67
2022-08-23T18:07:15.149Z,23.66
2022-08-23T18:09:48.348Z,23.61
2022-08-23T18:12:23.028Z,23.61
2022-08-23T18:14:55.598Z,23.58
2022-08-23T18:17:27.906Z,23.55
2022-08-23T18:20:00.157Z,23.56
2022-08-23T18:22:32.731Z,23.54
2022-08-23T18:25:06.225Z,23.47
2022-08-23T18:27:56.521Z,23.46
2022-08-23T18:30:29.305Z,23.44
2022-08-23T18:33:02.540Z,23.40
2022-08-23T18:35:35.601Z,23.40
2022-08-23T18:38:08.426Z,23.39
2022-08-23T18:40:46.389Z,23.39
2022-08-23T18:43:22.231Z,23.35
2022-08-23T18:45:57.524Z,23.40
2022-08-23T18:48:29.834Z,23.37
2022-08-23T18:51:03.466Z,23.35
2022-08-23T18:53:36.619Z,23.34
2022-08-23T18:56:10.018Z,23.26
2022-08-23T18:58:42.716Z,23.20
2022-08-23T19:01:28.674Z,23.21
2022-08-23T19:04:04.234Z,23.20
2022-08-23T19:06:37.624Z,23.19
2022-08-23T19:09:13.323Z,23.15
2022-08-23T19:11:46.356Z,23.11
2022-08-23T19:14:19.482Z,23.06
2022-08-23T19:16:52.149Z,23.06
2022-08-23T19:19:24.549Z,23.05
2022-08-23T19:21:57.009Z,23.00
2022-08-23T19:24:29.939Z,22.99
2022-08-23T19:27:03.235Z,22.92
2022-08-23T19:29:37.018Z,22.99
2022-08-23T19:32:09.974Z,23.01
2022-08-23T19:34:42.454Z,23.01
2022-08-23T19:37:20.482Z,23.01
2022-08-23T19:39:55.644Z,23.00
2022-08-23T19:42:30.554Z,22.95
2022-08-23T19:45:02.934Z,22.97
2022-08-23T19:47:36.023Z,22.87
2022-08-23T19:50:11.287Z,22.91
2022-08-23T19:52:43.874Z,22.85
2022-08-23T19:55:16.859Z,22.85
2022-08-23T19:57:49.580Z,22.89
2022-08-23T20:00:24.445Z,22.87
2022-08-23T20:02:56.986Z,22.87
2022-08-23T20:05:30.091Z,22.85
2022-08-23T20:08:03.260Z,22.79
2022-08-23T20:10:36.041Z,22.76
2022-08-23T20:13:08.700Z,22.83
2022-08-23T20:15:42.126Z,22.86
2022-08-23T20:18:15.622Z,22.86
2022-08-23T20:20:48.996Z,22.84
2022-08-23T20:23:51.004Z,22.85
2022-08-23T20:26:23.716Z,22.83
2022-08-23T20:28:59.598Z,22.82
2022-08-23T20:31:35.972Z,22.80
2022-08-23T20:34:09.987Z,22.80
2022-08-23T20:36:43.035Z,22.81
2022-08-23T20:39:19.248Z,22.78
2022-08-23T20:41:56.246Z,22.75
2022-08-23T20:44:28.937Z,22.75
2022-08-23T20:47:03.477Z,22.65
2022-08-23T20:49:36.229Z,22.73
2022-08-23T20:52:09.473Z,22.71
2022-08-23T20:54:42.133Z,22.59
2022-08-23T20:57:15.021Z,22.66
2022-08-23T20:59:47.693Z,22.65
2022-08-23T21:02:20.064Z,22.66
2022-08-23T21:04:53.541Z,22.62
2022-08-23T21:07:27.979Z,22.60
2022-08-23T21:10:00.850Z,22.61
2022-08-23T21:12:33.290Z,22.60
2022-08-23T21:15:10.313Z,22.59
2022-08-23T21:17:43.355Z,22.57
2022-08-23T21:20:20.190Z,22.57
2022-08-23T21:22:52.836Z,22.56
2022-08-23T21:25:25.376Z,22.55
2022-08-23T21:28:02.199Z,22.43
2022-08-23T21:30:36.690Z,22.51
2022-08-23T21:33:09.440Z,22.50
2022-08-23T21:35:41.672Z,22.48
2022-08-23T21:38:14.217Z,22.41
2022-08-23T21:40:46.497Z,22.43
2022-08-23T21:43:18.886Z,22.41
2022-08-23T21:45:52.253Z,22.39
2022-08-23T21:48:25.824Z,22.35
2022-08-23T21:50:59.226Z,22.36
2022-08-23T21:53:31.715Z,22.34
2022-08-23T21:56:04.546Z,22.32
2022-08-23T21:58:37.007Z,22.31
2022-08-23T22:01:10.188Z,22.30
2022-08-23T22:03:42.745Z,22.28
2022-08-23T22:06:19.643Z,22.27
2022-08-23T22:08:51.830Z,22.20
2022-08-23T22:11:24.885Z,22.26
2022-08-23T22:13:57.110Z,22.25
2022-08-23T22:16:29.425Z,22.18
2022-08-23T22:19:01.691Z,22.25
2022-08-23T22:21:35.487Z,22.24
2022-08-23T22:24:08.941Z,22.25
2022-08-23T22:26:42.578Z,22.23
2022-08-23T22:29:15.710Z,22.25
2022-08-23T22:31:50.395Z,22.19
2022-08-23T22:34:21.316Z,22.24
2022-08-23T22:36:53.583Z,22.24
2022-08-23T22:39:26.222Z,22.21
2022-08-23T22:41:58.370Z,22.22
2022-08-23T22:44:30.958Z,22.26
2022-08-23T22:47:03.704Z,22.25
2022-08-23T22:49:36.251Z,22.21
2022-08-23T22:52:10.168Z,22.20
2022-08-23T22:54:42.528Z,22.18
2022-08-23T22:57:14.838Z,22.18
2022-08-23T22:59:47.250Z,22.11
2022-08-23T23:02:23.474Z,22.17
2022-08-23T23:04:59.952Z,22.20
2022-08-23T23:07:49.789Z,22.20
2022-08-23T23:10:22.475Z,22.19
2022-08-23T23:12:54.817Z,22.20
2022-08-23T23:15:27.397Z,22.18
2022-08-23T23:18:00.246Z,22.19
2022-08-23T23:20:39.420Z,22.18
2022-08-23T23:23:15.285Z,22.19
2022-08-23T23:25:48.485Z,22.20
2022-08-23T23:28:22.887Z,22.20
2022-08-23T23:30:57.737Z,22.12
2022-08-23T23:33:30.217Z,22.23
2022-08-23T23:36:02.612Z,22.21
2022-08-23T23:38:34.964Z,22.21
2022-08-23T23:41:08.834Z,22.20
2022-08-23T23:43:41.977Z,22.21
2022-08-23T23:46:15.918Z,22.20
2022-08-23T23:48:50.255Z,22.20
2022-08-23T23:51:24.497Z,22.20
2022-08-23T23:53:57.467Z,22.18
2022-08-23T23:56:32.228Z,22.16
2022-08-23T23:59:05.111Z,22.16
